sensor_id;sensor_type;location;lat;lon;timestamp;P1;durP1;ratioP1;P2;durP2;ratioP2
15155;SDS011;7678;50.058;8.306;2023-03-08T00:01:02;2.60;;;2.40;;
15155;SDS011;7678;50.058;8.306;2023-03-08T00:03:35;7.50;;;5.70;;
15155;SDS011;7678;50.058;8.306;2023-03-08T00:06:04;8.53;;;6.10;;
15155;SDS011;7678;50.058;8.306;2023-03-08T00:08:32;8.47;;;6.43;;
15155;SDS011;7678;50.058;8.306;2023-03-08T00:11:03;7.80;;;6.60;;
15155;SDS011;7678;50.058;8.306;2023-03-08T00:13:32;5.90;;;4.50;;
15155;SDS011;7678;50.058;8.306;2023-03-08T00:16:00;5.50;;;4.47;;
15155;SDS011;7678;50.058;8.306;2023-03-08T00:18:29;5.20;;;4.30;;
15155;SDS011;7678;50.058;8.306;2023-03-08T00:20:58;4.63;;;3.87;;
15155;SDS011;7678;50.058;8.306;2023-03-08T00:23:26;4.07;;;3.57;;
15155;SDS011;7678;50.058;8.306;2023-03-08T00:25:56;4.23;;;3.57;;
15155;SDS011;7678;50.058;8.306;2023-03-08T00:28:24;4.47;;;3.93;;
15155;SDS011;7678;50.058;8.306;2023-03-08T00:30:55;6.63;;;3.40;;
15155;SDS011;7678;50.058;8.306;2023-03-08T00:33:26;4.27;;;3.70;;
15155;SDS011;7678;50.058;8.306;2023-03-08T00:35:56;4.17;;;3.77;;
15155;SDS011;7678;50.058;8.306;2023-03-08T00:38:24;4.40;;;3.70;;
15155;SDS011;7678;50.058;8.306;2023-03-08T00:40:53;3.47;;;3.17;;
15155;SDS011;7678;50.058;8.306;2023-03-08T00:43:22;3.97;;;3.20;;
15155;SDS011;7678;50.058;8.306;2023-03-08T00:45:51;3.13;;;2.80;;
15155;SDS011;7678;50.058;8.306;2023-03-08T00:48:19;3.90;;;2.87;;
15155;SDS011;7678;50.058;8.306;2023-03-08T00:50:48;3.00;;;2.30;;
15155;SDS011;7678;50.058;8.306;2023-03-08T00:53:16;2.80;;;2.20;;
15155;SDS011;7678;50.058;8.306;2023-03-08T00:55:47;4.03;;;2.73;;
15155;SDS011;7678;50.058;8.306;2023-03-08T00:58:15;2.60;;;2.40;;
15155;SDS011;7678;50.058;8.306;2023-03-08T01:00:46;2.73;;;2.37;;
15155;SDS011;7678;50.058;8.306;2023-03-08T01:03:15;3.83;;;2.57;;
15155;SDS011;7678;50.058;8.306;2023-03-08T01:05:44;3.20;;;2.80;;
15155;SDS011;7678;50.058;8.306;2023-03-08T01:08:17;3.57;;;2.37;;
15155;SDS011;7678;50.058;8.306;2023-03-08T01:10:46;3.20;;;2.80;;
15155;SDS011;7678;50.058;8.306;2023-03-08T01:13:14;3.73;;;2.87;;
15155;SDS011;7678;50.058;8.306;2023-03-08T01:15:43;3.00;;;2.70;;
15155;SDS011;7678;50.058;8.306;2023-03-08T01:18:12;2.97;;;2.67;;
15155;SDS011;7678;50.058;8.306;2023-03-08T01:20:40;3.20;;;2.90;;
15155;SDS011;7678;50.058;8.306;2023-03-08T01:23:11;3.53;;;3.00;;
15155;SDS011;7678;50.058;8.306;2023-03-08T01:25:39;3.10;;;2.80;;
15155;SDS011;7678;50.058;8.306;2023-03-08T01:28:07;3.27;;;2.97;;
15155;SDS011;7678;50.058;8.306;2023-03-08T01:30:35;3.70;;;2.70;;
15155;SDS011;7678;50.058;8.306;2023-03-08T01:33:03;4.13;;;3.73;;
15155;SDS011;7678;50.058;8.306;2023-03-08T01:35:32;3.67;;;3.33;;
15155;SDS011;7678;50.058;8.306;2023-03-08T01:38:00;4.20;;;3.80;;
15155;SDS011;7678;50.058;8.306;2023-03-08T01:40:28;4.53;;;4.00;;
15155;SDS011;7678;50.058;8.306;2023-03-08T01:42:56;4.33;;;3.90;;
15155;SDS011;7678;50.058;8.306;2023-03-08T01:48:30;4.87;;;4.17;;
15155;SDS011;7678;50.058;8.306;2023-03-08T01:51:03;4.87;;;4.10;;
15155;SDS011;7678;50.058;8.306;2023-03-08T01:53:34;5.50;;;4.43;;
15155;SDS011;7678;50.058;8.306;2023-03-08T01:56:05;5.57;;;4.63;;
15155;SDS011;7678;50.058;8.306;2023-03-08T01:58:39;4.83;;;4.00;;
15155;SDS011;7678;50.058;8.306;2023-03-08T02:01:09;5.37;;;4.50;;
15155;SDS011;7678;50.058;8.306;2023-03-08T02:03:37;6.10;;;4.83;;
15155;SDS011;7678;50.058;8.306;2023-03-08T02:06:06;7.20;;;4.47;;
15155;SDS011;7678;50.058;8.306;2023-03-08T02:08:35;6.27;;;4.37;;
15155;SDS011;7678;50.058;8.306;2023-03-08T02:11:03;5.60;;;4.53;;
15155;SDS011;7678;50.058;8.306;2023-03-08T02:13:31;7.73;;;4.57;;
15155;SDS011;7678;50.058;8.306;2023-03-08T02:15:59;7.20;;;4.97;;
15155;SDS011;7678;50.058;8.306;2023-03-08T02:18:32;4.90;;;4.23;;
15155;SDS011;7678;50.058;8.306;2023-03-08T02:21:00;6.80;;;4.97;;
15155;SDS011;7678;50.058;8.306;2023-03-08T02:23:29;8.13;;;5.23;;
15155;SDS011;7678;50.058;8.306;2023-03-08T02:25:58;4.93;;;4.43;;
15155;SDS011;7678;50.058;8.306;2023-03-08T02:28:29;6.73;;;4.50;;
15155;SDS011;7678;50.058;8.306;2023-03-08T02:30:58;8.80;;;4.53;;
15155;SDS011;7678;50.058;8.306;2023-03-08T02:33:26;7.17;;;4.73;;
15155;SDS011;7678;50.058;8.306;2023-03-08T02:35:55;6.73;;;4.63;;
15155;SDS011;7678;50.058;8.306;2023-03-08T02:38:23;6.10;;;4.97;;
15155;SDS011;7678;50.058;8.306;2023-03-08T02:40:53;6.50;;;5.00;;
15155;SDS011;7678;50.058;8.306;2023-03-08T02:43:21;6.57;;;5.20;;
15155;SDS011;7678;50.058;8.306;2023-03-08T02:45:49;7.80;;;5.90;;
15155;SDS011;7678;50.058;8.306;2023-03-08T02:48:17;8.43;;;5.50;;
15155;SDS011;7678;50.058;8.306;2023-03-08T02:50:46;7.53;;;5.60;;
15155;SDS011;7678;50.058;8.306;2023-03-08T02:53:14;8.30;;;5.60;;
15155;SDS011;7678;50.058;8.306;2023-03-08T02:55:42;9.33;;;6.10;;
15155;SDS011;7678;50.058;8.306;2023-03-08T02:58:11;8.67;;;6.20;;
15155;SDS011;7678;50.058;8.306;2023-03-08T03:00:39;9.93;;;6.60;;
15155;SDS011;7678;50.058;8.306;2023-03-08T03:03:07;8.97;;;6.07;;
15155;SDS011;7678;50.058;8.306;2023-03-08T03:05:39;10.90;;;6.27;;
15155;SDS011;7678;50.058;8.306;2023-03-08T03:08:08;8.43;;;5.67;;
15155;SDS011;7678;50.058;8.306;2023-03-08T03:10:36;10.10;;;7.33;;
15155;SDS011;7678;50.058;8.306;2023-03-08T03:13:04;8.80;;;6.27;;
15155;SDS011;7678;50.058;8.306;2023-03-08T03:15:35;9.90;;;7.30;;
15155;SDS011;7678;50.058;8.306;2023-03-08T03:18:04;9.67;;;7.10;;
15155;SDS011;7678;50.058;8.306;2023-03-08T03:20:32;9.87;;;6.43;;
15155;SDS011;7678;50.058;8.306;2023-03-08T03:23:00;11.33;;;7.40;;
15155;SDS011;7678;50.058;8.306;2023-03-08T03:25:28;9.50;;;6.93;;
15155;SDS011;7678;50.058;8.306;2023-03-08T03:27:56;9.40;;;7.00;;
15155;SDS011;7678;50.058;8.306;2023-03-08T03:30:24;12.57;;;8.03;;
15155;SDS011;7678;50.058;8.306;2023-03-08T03:32:53;11.90;;;7.57;;
15155;SDS011;7678;50.058;8.306;2023-03-08T03:35:21;10.27;;;7.50;;
15155;SDS011;7678;50.058;8.306;2023-03-08T03:37:49;11.37;;;7.80;;
15155;SDS011;7678;50.058;8.306;2023-03-08T03:40:17;13.13;;;8.07;;
15155;SDS011;7678;50.058;8.306;2023-03-08T03:42:47;12.23;;;8.03;;
15155;SDS011;7678;50.058;8.306;2023-03-08T03:45:15;12.83;;;8.43;;
15155;SDS011;7678;50.058;8.306;2023-03-08T03:47:43;11.60;;;8.37;;
15155;SDS011;7678;50.058;8.306;2023-03-08T03:50:14;12.97;;;9.23;;
15155;SDS011;7678;50.058;8.306;2023-03-08T03:52:41;13.20;;;9.07;;
15155;SDS011;7678;50.058;8.306;2023-03-08T03:55:09;14.40;;;9.30;;
15155;SDS011;7678;50.058;8.306;2023-03-08T03:57:37;12.87;;;8.73;;
15155;SDS011;7678;50.058;8.306;2023-03-08T04:00:06;15.17;;;9.10;;
15155;SDS011;7678;50.058;8.306;2023-03-08T04:02:35;15.43;;;10.03;;
15155;SDS011;7678;50.058;8.306;2023-03-08T04:05:03;14.60;;;9.50;;
15155;SDS011;7678;50.058;8.306;2023-03-08T04:07:33;13.57;;;9.10;;
15155;SDS011;7678;50.058;8.306;2023-03-08T04:10:01;16.40;;;10.47;;
15155;SDS011;7678;50.058;8.306;2023-03-08T04:12:29;14.70;;;10.00;;
15155;SDS011;7678;50.058;8.306;2023-03-08T04:14:57;16.10;;;10.10;;
15155;SDS011;7678;50.058;8.306;2023-03-08T04:17:25;18.13;;;10.10;;
15155;SDS011;7678;50.058;8.306;2023-03-08T04:19:52;13.93;;;10.10;;
15155;SDS011;7678;50.058;8.306;2023-03-08T04:22:21;18.63;;;10.43;;
15155;SDS011;7678;50.058;8.306;2023-03-08T04:24:50;19.20;;;11.87;;
15155;SDS011;7678;50.058;8.306;2023-03-08T04:27:18;14.63;;;10.97;;
15155;SDS011;7678;50.058;8.306;2023-03-08T04:29:46;17.53;;;11.77;;
15155;SDS011;7678;50.058;8.306;2023-03-08T04:32:14;15.77;;;11.57;;
15155;SDS011;7678;50.058;8.306;2023-03-08T04:34:42;15.47;;;11.63;;
15155;SDS011;7678;50.058;8.306;2023-03-08T04:37:10;16.70;;;12.23;;
15155;SDS011;7678;50.058;8.306;2023-03-08T04:39:39;19.17;;;12.17;;
15155;SDS011;7678;50.058;8.306;2023-03-08T04:42:08;15.23;;;11.17;;
15155;SDS011;7678;50.058;8.306;2023-03-08T04:44:36;20.03;;;12.60;;
15155;SDS011;7678;50.058;8.306;2023-03-08T04:47:04;18.73;;;13.03;;
15155;SDS011;7678;50.058;8.306;2023-03-08T04:49:32;19.67;;;12.40;;
15155;SDS011;7678;50.058;8.306;2023-03-08T04:52:00;18.10;;;13.20;;
15155;SDS011;7678;50.058;8.306;2023-03-08T04:54:28;18.23;;;12.23;;
15155;SDS011;7678;50.058;8.306;2023-03-08T04:56:56;19.60;;;12.87;;
15155;SDS011;7678;50.058;8.306;2023-03-08T04:59:25;21.10;;;13.83;;
15155;SDS011;7678;50.058;8.306;2023-03-08T05:01:53;23.23;;;14.20;;
15155;SDS011;7678;50.058;8.306;2023-03-08T05:04:21;20.17;;;13.83;;
15155;SDS011;7678;50.058;8.306;2023-03-08T05:06:49;20.33;;;13.37;;
15155;SDS011;7678;50.058;8.306;2023-03-08T05:09:17;21.53;;;14.20;;
15155;SDS011;7678;50.058;8.306;2023-03-08T05:11:45;21.60;;;14.57;;
15155;SDS011;7678;50.058;8.306;2023-03-08T05:14:13;23.50;;;14.80;;
15155;SDS011;7678;50.058;8.306;2023-03-08T05:16:42;19.90;;;14.77;;
15155;SDS011;7678;50.058;8.306;2023-03-08T05:19:11;20.33;;;14.43;;
15155;SDS011;7678;50.058;8.306;2023-03-08T05:21:39;19.27;;;13.77;;
15155;SDS011;7678;50.058;8.306;2023-03-08T05:24:07;23.43;;;14.53;;
15155;SDS011;7678;50.058;8.306;2023-03-08T05:26:35;19.23;;;13.90;;
15155;SDS011;7678;50.058;8.306;2023-03-08T05:29:03;19.10;;;14.27;;
15155;SDS011;7678;50.058;8.306;2023-03-08T05:31:33;23.23;;;15.40;;
15155;SDS011;7678;50.058;8.306;2023-03-08T05:34:04;26.70;;;18.00;;
15155;SDS011;7678;50.058;8.306;2023-03-08T05:36:32;28.80;;;18.90;;
15155;SDS011;7678;50.058;8.306;2023-03-08T05:39:00;30.47;;;19.47;;
15155;SDS011;7678;50.058;8.306;2023-03-08T05:41:28;26.43;;;19.20;;
15155;SDS011;7678;50.058;8.306;2023-03-08T05:43:56;31.60;;;20.17;;
15155;SDS011;7678;50.058;8.306;2023-03-08T05:46:26;33.90;;;20.40;;
15155;SDS011;7678;50.058;8.306;2023-03-08T05:48:57;31.20;;;20.50;;
15155;SDS011;7678;50.058;8.306;2023-03-08T05:51:26;32.83;;;20.30;;
15155;SDS011;7678;50.058;8.306;2023-03-08T05:53:54;32.03;;;21.17;;
15155;SDS011;7678;50.058;8.306;2023-03-08T05:56:22;31.57;;;20.70;;
15155;SDS011;7678;50.058;8.306;2023-03-08T05:58:51;31.87;;;20.27;;
15155;SDS011;7678;50.058;8.306;2023-03-08T06:01:20;29.97;;;19.43;;
15155;SDS011;7678;50.058;8.306;2023-03-08T06:03:50;30.03;;;20.10;;
15155;SDS011;7678;50.058;8.306;2023-03-08T06:06:19;29.07;;;19.73;;
15155;SDS011;7678;50.058;8.306;2023-03-08T06:08:50;26.33;;;18.70;;
15155;SDS011;7678;50.058;8.306;2023-03-08T06:11:19;28.63;;;20.23;;
15155;SDS011;7678;50.058;8.306;2023-03-08T06:13:50;26.60;;;18.77;;
15155;SDS011;7678;50.058;8.306;2023-03-08T06:16:20;27.87;;;19.97;;
15155;SDS011;7678;50.058;8.306;2023-03-08T06:18:48;31.43;;;19.57;;
15155;SDS011;7678;50.058;8.306;2023-03-08T06:21:17;27.80;;;18.63;;
15155;SDS011;7678;50.058;8.306;2023-03-08T06:23:46;25.87;;;18.63;;
15155;SDS011;7678;50.058;8.306;2023-03-08T06:26:15;27.27;;;18.53;;
15155;SDS011;7678;50.058;8.306;2023-03-08T06:28:44;27.03;;;18.57;;
15155;SDS011;7678;50.058;8.306;2023-03-08T06:31:13;28.20;;;19.23;;
15155;SDS011;7678;50.058;8.306;2023-03-08T06:33:42;25.03;;;17.53;;
15155;SDS011;7678;50.058;8.306;2023-03-08T06:36:10;23.00;;;17.07;;
15155;SDS011;7678;50.058;8.306;2023-03-08T06:38:40;24.77;;;17.90;;
15155;SDS011;7678;50.058;8.306;2023-03-08T06:41:09;25.87;;;17.77;;
15155;SDS011;7678;50.058;8.306;2023-03-08T06:43:39;23.77;;;17.50;;
15155;SDS011;7678;50.058;8.306;2023-03-08T06:46:09;24.67;;;17.43;;
15155;SDS011;7678;50.058;8.306;2023-03-08T06:48:39;28.33;;;16.70;;
15155;SDS011;7678;50.058;8.306;2023-03-08T06:51:07;24.73;;;17.57;;
15155;SDS011;7678;50.058;8.306;2023-03-08T06:53:35;25.23;;;17.70;;
15155;SDS011;7678;50.058;8.306;2023-03-08T06:56:04;22.47;;;16.47;;
15155;SDS011;7678;50.058;8.306;2023-03-08T06:58:33;23.37;;;16.07;;
15155;SDS011;7678;50.058;8.306;2023-03-08T07:01:03;28.10;;;16.50;;
15155;SDS011;7678;50.058;8.306;2023-03-08T07:03:31;27.20;;;16.80;;
15155;SDS011;7678;50.058;8.306;2023-03-08T07:06:00;23.47;;;16.07;;
15155;SDS011;7678;50.058;8.306;2023-03-08T07:08:29;23.13;;;15.73;;
15155;SDS011;7678;50.058;8.306;2023-03-08T07:11:01;30.33;;;16.30;;
15155;SDS011;7678;50.058;8.306;2023-03-08T07:13:29;24.60;;;16.33;;
15155;SDS011;7678;50.058;8.306;2023-03-08T07:15:57;24.00;;;17.07;;
15155;SDS011;7678;50.058;8.306;2023-03-08T07:18:26;24.23;;;16.00;;
15155;SDS011;7678;50.058;8.306;2023-03-08T07:20:55;21.93;;;15.43;;
15155;SDS011;7678;50.058;8.306;2023-03-08T07:23:23;20.73;;;13.97;;
15155;SDS011;7678;50.058;8.306;2023-03-08T07:25:51;21.40;;;14.73;;
15155;SDS011;7678;50.058;8.306;2023-03-08T07:28:21;21.43;;;14.90;;
15155;SDS011;7678;50.058;8.306;2023-03-08T07:30:58;22.13;;;15.83;;
15155;SDS011;7678;50.058;8.306;2023-03-08T07:33:28;23.03;;;14.60;;
15155;SDS011;7678;50.058;8.306;2023-03-08T07:35:57;22.47;;;14.73;;
15155;SDS011;7678;50.058;8.306;2023-03-08T07:38:27;22.10;;;16.23;;
15155;SDS011;7678;50.058;8.306;2023-03-08T07:40:56;26.73;;;16.80;;
15155;SDS011;7678;50.058;8.306;2023-03-08T07:43:24;23.33;;;16.37;;
15155;SDS011;7678;50.058;8.306;2023-03-08T07:45:52;25.27;;;15.97;;
15155;SDS011;7678;50.058;8.306;2023-03-08T07:48:20;25.30;;;15.93;;
15155;SDS011;7678;50.058;8.306;2023-03-08T07:50:49;25.60;;;15.47;;
15155;SDS011;7678;50.058;8.306;2023-03-08T07:53:17;25.30;;;16.90;;
15155;SDS011;7678;50.058;8.306;2023-03-08T07:55:45;26.30;;;16.00;;
15155;SDS011;7678;50.058;8.306;2023-03-08T07:58:13;27.57;;;16.80;;
15155;SDS011;7678;50.058;8.306;2023-03-08T08:00:41;28.77;;;17.33;;
15155;SDS011;7678;50.058;8.306;2023-03-08T08:03:09;27.77;;;17.67;;
15155;SDS011;7678;50.058;8.306;2023-03-08T08:05:37;25.77;;;17.13;;
15155;SDS011;7678;50.058;8.306;2023-03-08T08:08:07;23.90;;;16.33;;
15155;SDS011;7678;50.058;8.306;2023-03-08T08:10:35;23.43;;;16.03;;
15155;SDS011;7678;50.058;8.306;2023-03-08T08:13:03;27.53;;;15.93;;
15155;SDS011;7678;50.058;8.306;2023-03-08T08:15:31;25.80;;;16.50;;
15155;SDS011;7678;50.058;8.306;2023-03-08T08:17:59;24.63;;;17.03;;
15155;SDS011;7678;50.058;8.306;2023-03-08T08:20:27;22.63;;;15.70;;
15155;SDS011;7678;50.058;8.306;2023-03-08T08:22:55;27.63;;;18.90;;
15155;SDS011;7678;50.058;8.306;2023-03-08T08:25:25;30.93;;;18.47;;
15155;SDS011;7678;50.058;8.306;2023-03-08T08:27:52;26.57;;;17.33;;
15155;SDS011;7678;50.058;8.306;2023-03-08T08:30:21;29.50;;;17.50;;
15155;SDS011;7678;50.058;8.306;2023-03-08T08:32:49;31.90;;;19.20;;
15155;SDS011;7678;50.058;8.306;2023-03-08T08:35:17;28.63;;;17.90;;
15155;SDS011;7678;50.058;8.306;2023-03-08T08:37:45;24.63;;;17.83;;
15155;SDS011;7678;50.058;8.306;2023-03-08T08:40:14;29.90;;;19.90;;
15155;SDS011;7678;50.058;8.306;2023-03-08T08:42:43;28.30;;;18.50;;
15155;SDS011;7678;50.058;8.306;2023-03-08T08:45:11;31.77;;;20.07;;
15155;SDS011;7678;50.058;8.306;2023-03-08T08:47:39;30.00;;;19.57;;
15155;SDS011;7678;50.058;8.306;2023-03-08T08:50:08;29.90;;;20.43;;
15155;SDS011;7678;50.058;8.306;2023-03-08T08:52:39;33.80;;;21.27;;
15155;SDS011;7678;50.058;8.306;2023-03-08T08:55:07;34.70;;;20.53;;
15155;SDS011;7678;50.058;8.306;2023-03-08T08:57:36;32.87;;;21.03;;
15155;SDS011;7678;50.058;8.306;2023-03-08T09:00:07;30.07;;;21.13;;
15155;SDS011;7678;50.058;8.306;2023-03-08T09:02:36;36.33;;;22.23;;
15155;SDS011;7678;50.058;8.306;2023-03-08T09:05:05;33.37;;;21.43;;
15155;SDS011;7678;50.058;8.306;2023-03-08T09:07:33;34.20;;;22.57;;
15155;SDS011;7678;50.058;8.306;2023-03-08T09:10:04;31.77;;;21.30;;
15155;SDS011;7678;50.058;8.306;2023-03-08T09:12:33;36.07;;;21.23;;
15155;SDS011;7678;50.058;8.306;2023-03-08T09:15:02;37.87;;;23.87;;
15155;SDS011;7678;50.058;8.306;2023-03-08T09:17:31;38.50;;;23.07;;
15155;SDS011;7678;50.058;8.306;2023-03-08T09:19:59;37.07;;;23.27;;
15155;SDS011;7678;50.058;8.306;2023-03-08T09:22:28;31.17;;;19.87;;
15155;SDS011;7678;50.058;8.306;2023-03-08T09:24:56;30.23;;;20.10;;
15155;SDS011;7678;50.058;8.306;2023-03-08T09:27:24;34.10;;;22.43;;
15155;SDS011;7678;50.058;8.306;2023-03-08T09:29:52;32.87;;;21.03;;
15155;SDS011;7678;50.058;8.306;2023-03-08T09:32:20;32.65;;;23.33;;
15155;SDS011;7678;50.058;8.306;2023-03-08T09:34:49;35.93;;;24.20;;
15155;SDS011;7678;50.058;8.306;2023-03-08T09:37:18;30.23;;;20.67;;
15155;SDS011;7678;50.058;8.306;2023-03-08T09:39:49;35.00;;;24.45;;
15155;SDS011;7678;50.058;8.306;2023-03-08T09:42:18;31.17;;;20.50;;
15155;SDS011;7678;50.058;8.306;2023-03-08T09:45:01;32.67;;;20.67;;
15155;SDS011;7678;50.058;8.306;2023-03-08T09:47:44;32.95;;;23.23;;
15155;SDS011;7678;50.058;8.306;2023-03-08T09:53:06;34.17;;;20.80;;
15155;SDS011;7678;50.058;8.306;2023-03-08T09:55:44;30.63;;;20.13;;
15155;SDS011;7678;50.058;8.306;2023-03-08T09:58:20;30.73;;;19.70;;
15155;SDS011;7678;50.058;8.306;2023-03-08T10:00:55;31.63;;;21.37;;
15155;SDS011;7678;50.058;8.306;2023-03-08T10:06:28;32.07;;;23.00;;
15155;SDS011;7678;50.058;8.306;2023-03-08T10:09:01;34.23;;;23.37;;
15155;SDS011;7678;50.058;8.306;2023-03-08T10:11:35;34.70;;;23.43;;
15155;SDS011;7678;50.058;8.306;2023-03-08T10:14:10;35.37;;;24.43;;
15155;SDS011;7678;50.058;8.306;2023-03-08T10:16:44;34.35;;;25.38;;
15155;SDS011;7678;50.058;8.306;2023-03-08T10:19:16;34.05;;;26.52;;
15155;SDS011;7678;50.058;8.306;2023-03-08T10:21:51;35.23;;;25.90;;
15155;SDS011;7678;50.058;8.306;2023-03-08T10:24:22;34.67;;;27.00;;
15155;SDS011;7678;50.058;8.306;2023-03-08T10:26:58;33.83;;;25.75;;
15155;SDS011;7678;50.058;8.306;2023-03-08T10:29:33;28.73;;;22.93;;
15155;SDS011;7678;50.058;8.306;2023-03-08T10:32:01;31.97;;;23.33;;
15155;SDS011;7678;50.058;8.306;2023-03-08T10:34:29;27.57;;;22.33;;
15155;SDS011;7678;50.058;8.306;2023-03-08T10:37:01;30.27;;;22.23;;
15155;SDS011;7678;50.058;8.306;2023-03-08T10:39:32;28.97;;;21.73;;
15155;SDS011;7678;50.058;8.306;2023-03-08T10:42:12;27.67;;;20.77;;
15155;SDS011;7678;50.058;8.306;2023-03-08T10:44:43;29.67;;;22.17;;
15155;SDS011;7678;50.058;8.306;2023-03-08T10:47:17;31.13;;;22.33;;
15155;SDS011;7678;50.058;8.306;2023-03-08T10:49:47;29.63;;;23.13;;
15155;SDS011;7678;50.058;8.306;2023-03-08T10:52:22;29.63;;;22.37;;
15155;SDS011;7678;50.058;8.306;2023-03-08T10:55:01;30.03;;;23.73;;
15155;SDS011;7678;50.058;8.306;2023-03-08T10:57:31;29.17;;;23.20;;
15155;SDS011;7678;50.058;8.306;2023-03-08T11:00:02;29.43;;;23.57;;
15155;SDS011;7678;50.058;8.306;2023-03-08T11:02:37;28.48;;;23.33;;
15155;SDS011;7678;50.058;8.306;2023-03-08T11:05:15;26.07;;;22.57;;
15155;SDS011;7678;50.058;8.306;2023-03-08T11:07:50;30.70;;;23.13;;
15155;SDS011;7678;50.058;8.306;2023-03-08T11:10:20;29.80;;;23.27;;
15155;SDS011;7678;50.058;8.306;2023-03-08T11:12:50;29.57;;;22.33;;
15155;SDS011;7678;50.058;8.306;2023-03-08T11:15:28;26.97;;;21.53;;
15155;SDS011;7678;50.058;8.306;2023-03-08T11:18:00;30.87;;;27.47;;
15155;SDS011;7678;50.058;8.306;2023-03-08T11:20:33;29.90;;;26.47;;
15155;SDS011;7678;50.058;8.306;2023-03-08T11:23:14;31.30;;;25.60;;
15155;SDS011;7678;50.058;8.306;2023-03-08T11:25:46;27.73;;;22.53;;
15155;SDS011;7678;50.058;8.306;2023-03-08T11:28:24;27.10;;;23.43;;
15155;SDS011;7678;50.058;8.306;2023-03-08T11:31:11;30.57;;;22.60;;
15155;SDS011;7678;50.058;8.306;2023-03-08T11:34:03;28.43;;;22.40;;
15155;SDS011;7678;50.058;8.306;2023-03-08T11:36:43;27.30;;;22.17;;
15155;SDS011;7678;50.058;8.306;2023-03-08T11:39:25;24.20;;;21.57;;
15155;SDS011;7678;50.058;8.306;2023-03-08T11:41:58;25.47;;;20.87;;
15155;SDS011;7678;50.058;8.306;2023-03-08T11:44:43;23.13;;;20.60;;
15155;SDS011;7678;50.058;8.306;2023-03-08T11:47:30;24.70;;;20.77;;
15155;SDS011;7678;50.058;8.306;2023-03-08T11:50:12;24.67;;;20.60;;
15155;SDS011;7678;50.058;8.306;2023-03-08T11:52:49;24.77;;;20.03;;
15155;SDS011;7678;50.058;8.306;2023-03-08T11:55:40;23.80;;;19.47;;
15155;SDS011;7678;50.058;8.306;2023-03-08T11:58:14;23.77;;;19.00;;
15155;SDS011;7678;50.058;8.306;2023-03-08T12:00:46;24.77;;;19.67;;
15155;SDS011;7678;50.058;8.306;2023-03-08T12:03:18;24.27;;;19.67;;
15155;SDS011;7678;50.058;8.306;2023-03-08T12:05:51;21.37;;;19.00;;
15155;SDS011;7678;50.058;8.306;2023-03-08T12:08:23;21.90;;;18.63;;
15155;SDS011;7678;50.058;8.306;2023-03-08T12:10:57;23.23;;;20.77;;
15155;SDS011;7678;50.058;8.306;2023-03-08T12:13:31;21.50;;;18.43;;
15155;SDS011;7678;50.058;8.306;2023-03-08T12:16:03;20.03;;;17.77;;
15155;SDS011;7678;50.058;8.306;2023-03-08T12:18:39;19.90;;;17.80;;
15155;SDS011;7678;50.058;8.306;2023-03-08T12:21:13;22.23;;;17.70;;
15155;SDS011;7678;50.058;8.306;2023-03-08T12:23:50;19.70;;;16.80;;
15155;SDS011;7678;50.058;8.306;2023-03-08T12:26:31;19.77;;;16.47;;
15155;SDS011;7678;50.058;8.306;2023-03-08T12:29:04;19.57;;;16.13;;
15155;SDS011;7678;50.058;8.306;2023-03-08T12:31:41;18.93;;;16.57;;
15155;SDS011;7678;50.058;8.306;2023-03-08T12:34:13;18.90;;;16.63;;
15155;SDS011;7678;50.058;8.306;2023-03-08T12:36:51;17.07;;;15.23;;
15155;SDS011;7678;50.058;8.306;2023-03-08T12:39:24;17.93;;;15.73;;
15155;SDS011;7678;50.058;8.306;2023-03-08T12:41:57;19.73;;;16.03;;
15155;SDS011;7678;50.058;8.306;2023-03-08T12:44:27;18.10;;;16.20;;
15155;SDS011;7678;50.058;8.306;2023-03-08T12:46:57;20.00;;;16.67;;
15155;SDS011;7678;50.058;8.306;2023-03-08T12:49:31;19.40;;;16.93;;
15155;SDS011;7678;50.058;8.306;2023-03-08T12:52:02;19.10;;;16.30;;
15155;SDS011;7678;50.058;8.306;2023-03-08T12:54:32;17.63;;;15.73;;
15155;SDS011;7678;50.058;8.306;2023-03-08T12:57:12;15.63;;;14.03;;
15155;SDS011;7678;50.058;8.306;2023-03-08T12:59:42;18.10;;;14.77;;
15155;SDS011;7678;50.058;8.306;2023-03-08T13:02:23;18.13;;;16.27;;
15155;SDS011;7678;50.058;8.306;2023-03-08T13:05:00;17.80;;;15.90;;
15155;SDS011;7678;50.058;8.306;2023-03-08T13:07:49;17.43;;;15.63;;
15155;SDS011;7678;50.058;8.306;2023-03-08T13:10:26;17.60;;;15.70;;
15155;SDS011;7678;50.058;8.306;2023-03-08T13:13:18;18.80;;;16.80;;
15155;SDS011;7678;50.058;8.306;2023-03-08T13:16:05;19.23;;;17.23;;
15155;SDS011;7678;50.058;8.306;2023-03-08T13:18:45;15.90;;;14.20;;
15155;SDS011;7678;50.058;8.306;2023-03-08T13:21:19;17.57;;;15.67;;
15155;SDS011;7678;50.058;8.306;2023-03-08T13:23:53;19.57;;;17.67;;
15155;SDS011;7678;50.058;8.306;2023-03-08T13:29:28;18.60;;;15.47;;
15155;SDS011;7678;50.058;8.306;2023-03-08T13:32:02;16.33;;;14.67;;
15155;SDS011;7678;50.058;8.306;2023-03-08T13:34:32;17.27;;;15.43;;
15155;SDS011;7678;50.058;8.306;2023-03-08T13:37:01;18.63;;;15.97;;
15155;SDS011;7678;50.058;8.306;2023-03-08T13:39:29;17.30;;;15.43;;
15155;SDS011;7678;50.058;8.306;2023-03-08T13:42:04;18.77;;;15.60;;
15155;SDS011;7678;50.058;8.306;2023-03-08T13:44:35;16.33;;;14.63;;
15155;SDS011;7678;50.058;8.306;2023-03-08T13:47:11;18.17;;;15.27;;
15155;SDS011;7678;50.058;8.306;2023-03-08T13:49:47;16.27;;;14.57;;
15155;SDS011;7678;50.058;8.306;2023-03-08T13:52:17;16.93;;;15.13;;
15155;SDS011;7678;50.058;8.306;2023-03-08T13:54:48;16.40;;;14.53;;
15155;SDS011;7678;50.058;8.306;2023-03-08T13:57:20;16.47;;;14.47;;
15155;SDS011;7678;50.058;8.306;2023-03-08T13:59:51;16.60;;;14.80;;
15155;SDS011;7678;50.058;8.306;2023-03-08T14:02:21;16.43;;;14.73;;
15155;SDS011;7678;50.058;8.306;2023-03-08T14:04:51;17.03;;;15.23;;
15155;SDS011;7678;50.058;8.306;2023-03-08T14:07:20;17.03;;;15.13;;
15155;SDS011;7678;50.058;8.306;2023-03-08T14:09:50;16.33;;;14.63;;
15155;SDS011;7678;50.058;8.306;2023-03-08T14:12:19;15.93;;;14.23;;
15155;SDS011;7678;50.058;8.306;2023-03-08T14:14:49;16.60;;;14.80;;
15155;SDS011;7678;50.058;8.306;2023-03-08T14:17:22;17.00;;;15.20;;
15155;SDS011;7678;50.058;8.306;2023-03-08T14:19:53;16.93;;;14.23;;
15155;SDS011;7678;50.058;8.306;2023-03-08T14:22:23;17.67;;;15.53;;
15155;SDS011;7678;50.058;8.306;2023-03-08T14:25:05;20.07;;;16.20;;
15155;SDS011;7678;50.058;8.306;2023-03-08T14:27:46;21.43;;;17.37;;
15155;SDS011;7678;50.058;8.306;2023-03-08T14:30:16;20.07;;;17.67;;
15155;SDS011;7678;50.058;8.306;2023-03-08T14:32:54;21.20;;;18.10;;
15155;SDS011;7678;50.058;8.306;2023-03-08T14:35:25;19.97;;;17.97;;
15155;SDS011;7678;50.058;8.306;2023-03-08T14:37:57;24.37;;;20.10;;
15155;SDS011;7678;50.058;8.306;2023-03-08T14:40:27;23.93;;;21.33;;
15155;SDS011;7678;50.058;8.306;2023-03-08T14:42:58;24.90;;;21.67;;
15155;SDS011;7678;50.058;8.306;2023-03-08T14:45:34;28.53;;;25.43;;
15155;SDS011;7678;50.058;8.306;2023-03-08T14:48:13;23.70;;;21.10;;
15155;SDS011;7678;50.058;8.306;2023-03-08T14:50:53;25.73;;;21.17;;
15155;SDS011;7678;50.058;8.306;2023-03-08T14:53:24;27.47;;;21.73;;
15155;SDS011;7678;50.058;8.306;2023-03-08T14:55:56;25.27;;;22.23;;
15155;SDS011;7678;50.058;8.306;2023-03-08T14:58:26;27.50;;;21.80;;
15155;SDS011;7678;50.058;8.306;2023-03-08T15:00:58;27.43;;;22.67;;
15155;SDS011;7678;50.058;8.306;2023-03-08T15:03:27;30.13;;;23.70;;
15155;SDS011;7678;50.058;8.306;2023-03-08T15:05:55;28.60;;;22.73;;
15155;SDS011;7678;50.058;8.306;2023-03-08T15:08:23;30.27;;;23.37;;
15155;SDS011;7678;50.058;8.306;2023-03-08T15:10:52;29.43;;;24.80;;
15155;SDS011;7678;50.058;8.306;2023-03-08T15:13:21;28.43;;;24.97;;